^^
Saratoga-Weather Station Historical Data
Daily Summary for December 9, 2020 Units:  English    Metric   Both
Daily Weekly Monthly Yearly Custom
  High: Low: Average:
Temperature: 37 °F 32.9 °F 34.5 °F
Dew Point: 35.6 °F 30.7 °F 32.7 °F
Humidity: 96% 90% 93%
Wind Speed: 8.1mph 0mph 1.8mph
Wind Gust: 10mph - -
Wind- - WSW
Pressure: 29.9 in 29.7 in -
Precipitation: 0 in    
Historical Graphs
 
 
Tabular Data for December 9, 2020
Time Temperature Dew Point Pressure Wind Wind Speed Wind Gust Humidity Rainfall Rate (Hourly) solar
00:02 36.5 °F 35.4 °F 29.7 in WNW 2.9 mph 7 mph 96% 0 in 0 W/m2
00:07 36.5 °F 35.2 °F 29.7 in WNW 2.9 mph 3 mph 95% 0 in 0 W/m2
00:12 36.7 °F 35.4 °F 29.7 in SW 0.9 mph 6 mph 95% 0 in 0 W/m2
00:17 36.7 °F 35.4 °F 29.7 in WSW 4 mph 4 mph 95% 0 in 0 W/m2
00:22 36.7 °F 35.4 °F 29.7 in West 2.9 mph 4 mph 95% 0 in 0 W/m2
00:27 36.7 °F 35.4 °F 29.7 in WNW 0.9 mph 1 mph 95% 0 in 0 W/m2
00:32 36.7 °F 35.4 °F 29.7 in WNW 2.9 mph 7 mph 95% 0 in 0 W/m2
00:37 36.7 °F 35.4 °F 29.7 in West 2 mph 3 mph 95% 0 in 0 W/m2
00:42 36.7 °F 35.4 °F 29.7 in West 4 mph 9 mph 95% 0 in 0 W/m2
00:47 36.7 °F 35.4 °F 29.7 in West 6 mph 7 mph 95% 0 in 0 W/m2
00:52 36.7 °F 35.4 °F 29.7 in WNW 4.9 mph 8 mph 95% 0 in 0 W/m2
00:57 36.7 °F 35.4 °F 29.7 in WSW 6.9 mph 7 mph 95% 0 in 0 W/m2
01:02 36.7 °F 35.4 °F 29.7 in WSW 2.9 mph 7 mph 95% 0 in 0 W/m2
01:07 36.7 °F 35.4 °F 29.7 in WNW 2.9 mph 6 mph 95% 0 in 0 W/m2
01:12 36.9 °F 35.6 °F 29.7 in WNW 2.9 mph 6 mph 95% 0 in 0 W/m2
01:17 36.9 °F 35.2 °F 29.7 in West 2.9 mph 7 mph 94% 0 in 0 W/m2
01:22 36.9 °F 35.2 °F 29.7 in West 2.9 mph 4 mph 94% 0 in 0 W/m2
01:27 36.9 °F 35.2 °F 29.7 in WSW 4 mph 7 mph 94% 0 in 0 W/m2
01:32 36.9 °F 35.2 °F 29.7 in WNW 2 mph 6 mph 94% 0 in 0 W/m2
01:37 36.9 °F 35.2 °F 29.7 in West 2 mph 4 mph 94% 0 in 0 W/m2
01:42 37 °F 35.4 °F 29.7 in WSW 4.9 mph 8 mph 94% 0 in 0 W/m2
01:47 36.9 °F 35.2 °F 29.7 in West 4 mph 8 mph 94% 0 in 0 W/m2
01:52 37 °F 35.4 °F 29.7 in West 6 mph 7 mph 94% 0 in 0 W/m2
01:57 37 °F 35.4 °F 29.7 in West 2.9 mph 7 mph 94% 0 in 0 W/m2
02:02 37 °F 35.4 °F 29.7 in WNW 2.9 mph 6 mph 94% 0 in 0 W/m2
02:07 37 °F 35.2 °F 29.7 in WNW 2.9 mph 6 mph 93% 0 in 0 W/m2
02:12 37 °F 35.2 °F 29.8 in West 2 mph 4 mph 93% 0 in 0 W/m2
02:17 37 °F 35.2 °F 29.8 in West 6 mph 6 mph 93% 0 in 0 W/m2
02:22 37 °F 35.2 °F 29.8 in West 4 mph 4 mph 93% 0 in 0 W/m2
02:27 37 °F 35.2 °F 29.8 in WNW 6 mph 6 mph 93% 0 in 0 W/m2
02:32 37 °F 35.2 °F 29.8 in WNW 2 mph 5 mph 93% 0 in 0 W/m2
02:37 36.9 °F 35.1 °F 29.8 in WNW 2 mph 3 mph 93% 0 in 0 W/m2
02:42 36.9 °F 35.1 °F 29.8 in West 2.9 mph 4 mph 93% 0 in 0 W/m2
02:47 36.9 °F 35.1 °F 29.8 in WNW 2.9 mph 4 mph 93% 0 in 0 W/m2
02:52 36.7 °F 34.9 °F 29.8 in WSW 4.9 mph 7 mph 93% 0 in 0 W/m2
02:57 36.5 °F 34.7 °F 29.8 in WSW 4 mph 4 mph 93% 0 in 0 W/m2
03:02 36.3 °F 34.2 °F 29.8 in WNW 2 mph 6 mph 92% 0 in 0 W/m2
03:07 36.3 °F 34.2 °F 29.8 in WNW 2 mph 7 mph 92% 0 in 0 W/m2
03:12 36.3 °F 34.2 °F 29.8 in West 2.9 mph 6 mph 92% 0 in 0 W/m2
03:17 36.3 °F 34.2 °F 29.8 in NW 2 mph 4 mph 92% 0 in 0 W/m2
03:22 36.3 °F 34.2 °F 29.8 in West 2 mph 3 mph 92% 0 in 0 W/m2
03:27 36.1 °F 34 °F 29.8 in WNW 2 mph 4 mph 92% 0 in 0 W/m2
03:32 36 °F 33.8 °F 29.8 in West 2.9 mph 6 mph 92% 0 in 0 W/m2
03:37 35.8 °F 33.6 °F 29.8 in WNW 2 mph 3 mph 92% 0 in 0 W/m2
03:42 35.8 °F 33.6 °F 29.8 in West 2 mph 6 mph 92% 0 in 0 W/m2
03:47 35.8 °F 34 °F 29.8 in West 2 mph 3 mph 93% 0 in 0 W/m2
03:52 35.8 °F 34 °F 29.8 in NNW 4 mph 6 mph 93% 0 in 0 W/m2
03:57 35.8 °F 34 °F 29.8 in NW 8.1 mph 8 mph 93% 0 in 0 W/m2
04:02 35.8 °F 34 °F 29.8 in WNW 2.9 mph 7 mph 93% 0 in 0 W/m2
04:07 35.8 °F 34 °F 29.8 in WNW 8 mph 8 mph 93% 0 in 0 W/m2
04:12 35.8 °F 34 °F 29.8 in WNW 4 mph 8 mph 93% 0 in 0 W/m2
04:17 35.8 °F 34 °F 29.8 in West 4 mph 6 mph 93% 0 in 0 W/m2
04:22 35.8 °F 34 °F 29.8 in WNW 2.9 mph 8 mph 93% 0 in 0 W/m2
04:27 35.8 °F 34 °F 29.8 in WSW 6.9 mph 7 mph 93% 0 in 0 W/m2
04:32 35.8 °F 34 °F 29.8 in West 6 mph 8 mph 93% 0 in 0 W/m2
04:37 35.6 °F 33.8 °F 29.8 in WSW 6 mph 7 mph 93% 0 in 0 W/m2
04:42 35.6 °F 33.8 °F 29.8 in West 2 mph 6 mph 93% 0 in 0 W/m2
04:47 35.6 °F 33.8 °F 29.8 in West 2 mph 5 mph 93% 0 in 0 W/m2
04:52 35.4 °F 33.6 °F 29.8 in West 2.9 mph 8 mph 93% 0 in 0 W/m2
04:57 35.4 °F 33.3 °F 29.8 in West 4 mph 7 mph 92% 0 in 0 W/m2
05:02 35.4 °F 33.3 °F 29.8 in West 2.9 mph 6 mph 92% 0 in 0 W/m2
05:07 35.4 °F 33.3 °F 29.8 in WNW 2 mph 4 mph 92% 0 in 0 W/m2
05:12 35.4 °F 33.6 °F 29.8 in WSW 2.9 mph 4 mph 93% 0 in 0 W/m2
05:17 35.4 °F 33.6 °F 29.8 in West 2.9 mph 4 mph 93% 0 in 0 W/m2
05:22 35.4 °F 33.6 °F 29.8 in West 2 mph 4 mph 93% 0 in 0 W/m2
05:27 35.2 °F 33.1 °F 29.8 in WNW 2 mph 9 mph 92% 0 in 0 W/m2
05:32 35.2 °F 33.1 °F 29.8 in West 2.9 mph 7 mph 92% 0 in 0 W/m2
05:37 35.4 °F 33.3 °F 29.8 in WNW 4 mph 9 mph 92% 0 in 0 W/m2
05:42 35.2 °F 33.1 °F 29.8 in WSW 2.9 mph 7 mph 92% 0 in 0 W/m2
05:47 35.2 °F 33.1 °F 29.8 in West 2.9 mph 7 mph 92% 0 in 0 W/m2
05:53 35.2 °F 33.1 °F 29.8 in WNW 2.9 mph 8 mph 92% 0 in 0 W/m2
05:58 35.2 °F 33.1 °F 29.8 in West 2.9 mph 4 mph 92% 0 in 0 W/m2
06:03 35.2 °F 33.1 °F 29.8 in West 2.9 mph 7 mph 92% 0 in 0 W/m2
06:08 35.2 °F 33.1 °F 29.8 in West 0.9 mph 6 mph 92% 0 in 0 W/m2
06:13 35.2 °F 33.1 °F 29.8 in West 8.1 mph 8 mph 92% 0 in 0 W/m2
06:18 35.2 °F 33.1 °F 29.8 in NW 2 mph 5 mph 92% 0 in 0 W/m2
06:23 35.2 °F 33.1 °F 29.8 in West 2 mph 3 mph 92% 0 in 0 W/m2
06:28 35.2 °F 33.1 °F 29.8 in WSW 2.9 mph 4 mph 92% 0 in 0 W/m2
06:33 35.1 °F 32.9 °F 29.8 in WSW 2 mph 6 mph 92% 0 in 0 W/m2
06:38 35.1 °F 32.9 °F 29.8 in WSW 2.9 mph 6 mph 92% 0 in 0 W/m2
06:43 35.1 °F 32.9 °F 29.8 in West 2.9 mph 4 mph 92% 0 in 0 W/m2
06:48 35.1 °F 32.9 °F 29.8 in WSW 4 mph 6 mph 92% 0 in 0 W/m2
06:53 35.1 °F 32.9 °F 29.8 in West 2.9 mph 3 mph 92% 0 in 0 W/m2
06:58 34.9 °F 32.7 °F 29.8 in West 2 mph 4 mph 92% 0 in 0 W/m2
07:03 34.9 °F 32.7 °F 29.8 in WNW 4 mph 5 mph 92% 0 in 0 W/m2
07:08 34.7 °F 32.5 °F 29.8 in WSW 6 mph 6 mph 92% 0 in 0 W/m2
07:13 34.7 °F 32.5 °F 29.8 in West 2.9 mph 6 mph 92% 0 in 0 W/m2
07:18 34.5 °F 32.4 °F 29.8 in West 2 mph 7 mph 92% 0 in 0 W/m2
07:23 34.3 °F 32.2 °F 29.8 in WNW 2 mph 7 mph 92% 0 in 0 W/m2
07:28 34.2 °F 32 °F 29.8 in West 6 mph 10 mph 92% 0 in 0 W/m2
07:33 34.2 °F 32 °F 29.8 in West 2 mph 7 mph 92% 0 in 0 W/m2
07:38 34 °F 31.8 °F 29.8 in WNW 2.9 mph 8 mph 92% 0 in 0 W/m2
07:43 34 °F 31.8 °F 29.8 in WNW 4.9 mph 6 mph 92% 0 in 0 W/m2
07:48 34 °F 31.8 °F 29.8 in WSW 2 mph 8 mph 92% 0 in 0 W/m2
07:53 34 °F 31.8 °F 29.8 in WSW 2 mph 4 mph 92% 0 in 0 W/m2
07:58 34 °F 31.8 °F 29.8 in West 6 mph 9 mph 92% 0 in 0 W/m2
08:03 34 °F 31.6 °F 29.8 in WNW 2 mph 4 mph 91% 0 in 0 W/m2
08:08 34 °F 31.6 °F 29.8 in WNW 2 mph 9 mph 91% 0 in 0 W/m2
08:13 34 °F 31.6 °F 29.8 in NW 2.9 mph 7 mph 91% 0 in 0 W/m2
08:18 34 °F 31.6 °F 29.8 in WNW 0.9 mph 2 mph 91% 0 in 0 W/m2
08:23 34 °F 31.6 °F 29.8 in Calm   7 mph 91% 0 in 0 W/m2
08:28 34 °F 31.6 °F 29.8 in WSW 0.9 mph 3 mph 91% 0 in 0 W/m2
08:33 34 °F 31.6 °F 29.8 in WNW 2.9 mph 4 mph 91% 0 in 5 W/m2
08:38 33.8 °F 31.5 °F 29.8 in West 2 mph 4 mph 91% 0 in 7 W/m2
08:43 33.8 °F 31.5 °F 29.8 in West 0.9 mph 3 mph 91% 0 in 9 W/m2
08:48 33.6 °F 31.3 °F 29.8 in Calm   2 mph 91% 0 in 11 W/m2
08:53 33.6 °F 31.3 °F 29.8 in West 0.9 mph 2 mph 91% 0 in 16 W/m2
08:58 33.6 °F 31.3 °F 29.8 in West 0.9 mph 4 mph 91% 0 in 19 W/m2
09:03 33.6 °F 31.3 °F 29.8 in WNW 2.9 mph 6 mph 91% 0 in 23 W/m2
09:08 33.6 °F 31.3 °F 29.8 in West 2 mph 3 mph 91% 0 in 21 W/m2
09:13 33.6 °F 31.3 °F 29.8 in WNW 4 mph 6 mph 91% 0 in 19 W/m2
09:18 33.8 °F 31.5 °F 29.8 in West 0.9 mph 3 mph 91% 0 in 18 W/m2
09:23 33.8 °F 31.5 °F 29.8 in WNW 2 mph 4 mph 91% 0 in 25 W/m2
09:28 34 °F 31.6 °F 29.8 in Calm   3 mph 91% 0 in 25 W/m2
09:33 34 °F 31.6 °F 29.8 in WNW 2 mph 5 mph 91% 0 in 32 W/m2
09:38 34 °F 31.6 °F 29.8 in WNW 2 mph 3 mph 91% 0 in 39 W/m2
09:43 34 °F 31.6 °F 29.8 in WNW 2.9 mph 5 mph 91% 0 in 32 W/m2
09:48 34 °F 31.6 °F 29.8 in WNW 2 mph 6 mph 91% 0 in 32 W/m2
09:53 34 °F 31.6 °F 29.8 in WSW 2.9 mph 7 mph 91% 0 in 44 W/m2
09:58 34 °F 31.6 °F 29.8 in WNW 4 mph 4 mph 91% 0 in 49 W/m2
10:03 34 °F 31.6 °F 29.8 in WNW 4 mph 7 mph 91% 0 in 40 W/m2
10:08 33.6 °F 31.3 °F 29.9 in West 0.9 mph 6 mph 91% 0 in 35 W/m2
10:13 33.6 °F 30.9 °F 29.9 in WSW 0.9 mph 4 mph 90% 0 in 44 W/m2
10:18 33.6 °F 31.3 °F 29.9 in West 2.9 mph 7 mph 91% 0 in 42 W/m2
10:23 33.6 °F 30.9 °F 29.9 in WSW 2 mph 4 mph 90% 0 in 53 W/m2
10:28 33.6 °F 31.3 °F 29.9 in West 4 mph 4 mph 91% 0 in 56 W/m2
10:33 33.6 °F 30.9 °F 29.9 in West 2.9 mph 4 mph 90% 0 in 49 W/m2
10:38 33.6 °F 30.9 °F 29.9 in NW 2 mph 3 mph 90% 0 in 53 W/m2
10:43 33.6 °F 31.3 °F 29.9 in Calm   2 mph 91% 0 in 42 W/m2
10:48 33.6 °F 30.9 °F 29.9 in NW 0.9 mph 2 mph 90% 0 in 44 W/m2
10:53 33.6 °F 30.9 °F 29.9 in Calm   2 mph 90% 0 in 33 W/m2
10:58 33.6 °F 30.9 °F 29.9 in Calm   1 mph 90% 0 in 33 W/m2
11:03 33.6 °F 30.9 °F 29.9 in NE 0.9 mph 3 mph 90% 0 in 28 W/m2
11:08 33.6 °F 30.9 °F 29.9 in Calm     90% 0 in 33 W/m2
11:13 33.6 °F 30.9 °F 29.9 in North 2 mph 3 mph 90% 0 in 47 W/m2
11:18 33.6 °F 30.9 °F 29.9 in West 4 mph 4 mph 90% 0 in 70 W/m2
11:23 33.6 °F 31.3 °F 29.9 in West 0.9 mph 5 mph 91% 0 in 79 W/m2
11:28 33.8 °F 31.1 °F 29.9 in NW 2 mph 3 mph 90% 0 in 90 W/m2
11:33 33.8 °F 31.1 °F 29.8 in NW 2 mph 5 mph 90% 0 in 97 W/m2
11:38 34 °F 31.3 °F 29.9 in WNW 2 mph 4 mph 90% 0 in 88 W/m2
11:44 34 °F 31.6 °F 29.8 in West 2 mph 5 mph 91% 0 in 107 W/m2
11:49 33.8 °F 31.1 °F 29.8 in WNW 2 mph 2 mph 90% 0 in 113 W/m2
11:54 33.6 °F 30.9 °F 29.8 in WSW 4 mph 6 mph 90% 0 in 114 W/m2
11:59 33.6 °F 30.9 °F 29.8 in WNW 0.9 mph 5 mph 90% 0 in 104 W/m2
12:04 33.8 °F 31.1 °F 29.8 in WNW 2 mph 3 mph 90% 0 in 88 W/m2
12:09 33.6 °F 31.3 °F 29.8 in West 2.9 mph 7 mph 91% 0 in 105 W/m2
12:14 33.6 °F 31.3 °F 29.8 in WNW 6 mph 6 mph 91% 0 in 125 W/m2
12:19 33.4 °F 30.7 °F 29.8 in NNW 4 mph 4 mph 90% 0 in 114 W/m2
12:24 33.3 °F 30.9 °F 29.8 in NNW 2.9 mph 3 mph 91% 0 in 102 W/m2
12:29 33.3 °F 30.9 °F 29.8 in WNW 2.9 mph 7 mph 91% 0 in 91 W/m2
12:34 33.3 °F 30.9 °F 29.8 in NW 4 mph 7 mph 91% 0 in 81 W/m2
12:39 33.3 °F 30.9 °F 29.8 in WSW 2.9 mph 3 mph 91% 0 in 81 W/m2
12:44 33.3 °F 30.9 °F 29.8 in WNW 2 mph 3 mph 91% 0 in 69 W/m2
12:49 33.3 °F 30.9 °F 29.8 in Calm   2 mph 91% 0 in 70 W/m2
12:54 33.4 °F 31.3 °F 29.8 in Calm   2 mph 92% 0 in 72 W/m2
12:59 33.4 °F 31.1 °F 29.8 in West 2 mph 4 mph 91% 0 in 72 W/m2
13:04 33.3 °F 30.9 °F 29.8 in West 0.9 mph 6 mph 91% 0 in 63 W/m2
13:09 33.3 °F 31.1 °F 29.9 in SSW 0.9 mph 2 mph 92% 0 in 53 W/m2
13:14 33.3 °F 31.1 °F 29.8 in NW 2 mph 3 mph 92% 0 in 54 W/m2
13:19 33.3 °F 31.1 °F 29.8 in SW 0.9 mph 3 mph 92% 0 in 58 W/m2
13:24 33.3 °F 31.1 °F 29.8 in Calm   3 mph 92% 0 in 56 W/m2
13:29 33.3 °F 31.1 °F 29.8 in West 2 mph 3 mph 92% 0 in 49 W/m2
13:34 33.3 °F 31.1 °F 29.8 in WSW 0.9 mph 4 mph 92% 0 in 51 W/m2
13:39 33.3 °F 31.1 °F 29.8 in WSW 2 mph 3 mph 92% 0 in 62 W/m2
13:44 33.3 °F 31.1 °F 29.8 in WNW 0.9 mph 4 mph 92% 0 in 54 W/m2
13:49 33.1 °F 31.1 °F 29.8 in West 6 mph 8 mph 92% 0 in 47 W/m2
13:54 32.9 °F 30.9 °F 29.8 in WNW 2.9 mph 3 mph 92% 0 in 42 W/m2
13:59 32.9 °F 30.9 °F 29.8 in NW 2.9 mph 8 mph 92% 0 in 37 W/m2
14:04 33.1 °F 31.3 °F 29.8 in West 2.9 mph 3 mph 93% 0 in 35 W/m2
14:09 33.1 °F 31.3 °F 29.8 in West 2 mph 3 mph 93% 0 in 33 W/m2
14:14 33.1 °F 31.3 °F 29.8 in Calm   2 mph 93% 0 in 35 W/m2
14:19 33.1 °F 31.3 °F 29.8 in WNW 2 mph 3 mph 93% 0 in 35 W/m2
14:24 33.1 °F 31.3 °F 29.8 in Calm   2 mph 93% 0 in 32 W/m2
14:29 33.1 °F 31.3 °F 29.8 in Calm   4 mph 93% 0 in 30 W/m2
14:34 33.1 °F 31.5 °F 29.8 in WSW 0.9 mph 3 mph 94% 0 in 32 W/m2
14:39 33.1 °F 31.5 °F 29.8 in Calm   4 mph 94% 0 in 30 W/m2
14:44 33.1 °F 31.3 °F 29.8 in Calm   2 mph 93% 0 in 33 W/m2
14:49 33.1 °F 31.5 °F 29.8 in WNW 0.9 mph 2 mph 94% 0 in 32 W/m2
14:54 33.3 °F 31.6 °F 29.8 in Calm   1 mph 94% 0 in 28 W/m2
14:59 33.3 °F 31.6 °F 29.8 in Calm   2 mph 94% 0 in 32 W/m2
15:04 33.3 °F 31.6 °F 29.8 in West 0.9 mph 1 mph 94% 0 in 32 W/m2
15:09 33.3 °F 31.6 °F 29.8 in Calm   1 mph 94% 0 in 28 W/m2
15:14 33.3 °F 31.6 °F 29.8 in NE 2 mph 2 mph 94% 0 in 26 W/m2
15:19 33.4 °F 31.8 °F 29.8 in Calm   1 mph 94% 0 in 21 W/m2
15:24 33.4 °F 31.8 °F 29.8 in Calm   2 mph 94% 0 in 19 W/m2
15:29 33.4 °F 31.8 °F 29.8 in Calm   1 mph 94% 0 in 18 W/m2
15:34 33.4 °F 31.8 °F 29.8 in Calm   2 mph 94% 0 in 18 W/m2
15:39 33.6 °F 32 °F 29.8 in Calm     94% 0 in 16 W/m2
15:44 33.6 °F 32 °F 29.8 in East 0.9 mph 1 mph 94% 0 in 14 W/m2
15:49 33.6 °F 32 °F 29.9 in Calm     94% 0 in 12 W/m2
15:54 33.6 °F 32 °F 29.9 in Calm   1 mph 94% 0 in 11 W/m2
15:59 33.6 °F 32 °F 29.8 in Calm   1 mph 94% 0 in 9 W/m2
16:04 33.8 °F 32.2 °F 29.8 in Calm   2 mph 94% 0 in 7 W/m2
16:09 33.6 °F 32 °F 29.8 in ESE 2 mph 3 mph 94% 0 in 5 W/m2
16:14 33.6 °F 32 °F 29.9 in ESE 0.9 mph 3 mph 94% 0 in 5 W/m2
16:19 33.6 °F 32 °F 29.9 in Calm   2 mph 94% 0 in 0 W/m2
16:25 33.6 °F 32 °F 29.9 in Calm   3 mph 94% 0 in 0 W/m2
16:30 33.6 °F 32 °F 29.9 in ESE 2 mph 2 mph 94% 0 in 0 W/m2
16:35 33.6 °F 32 °F 29.9 in Calm     94% 0 in 0 W/m2
16:40 33.6 °F 32 °F 29.9 in Calm     94% 0 in 0 W/m2
16:45 33.6 °F 32 °F 29.9 in Calm     94% 0 in 0 W/m2
16:50 33.8 °F 32.2 °F 29.9 in Calm     94% 0 in 0 W/m2
16:55 33.8 °F 32.2 °F 29.8 in ENE 2 mph 2 mph 94% 0 in 0 W/m2
17:00 33.8 °F 32.2 °F 29.8 in Calm     94% 0 in 0 W/m2
17:05 33.8 °F 32.2 °F 29.8 in Calm     94% 0 in 0 W/m2
17:10 33.8 °F 32.2 °F 29.8 in Calm     94% 0 in 0 W/m2
17:15 33.8 °F 32.2 °F 29.8 in Calm     94% 0 in 0 W/m2
17:20 34 °F 32.4 °F 29.8 in Calm     94% 0 in 0 W/m2
17:25 34 °F 32.4 °F 29.8 in WSW 0.9 mph 1 mph 94% 0 in 0 W/m2
17:30 34 °F 32.4 °F 29.8 in Calm     94% 0 in 0 W/m2
17:35 34 °F 32.4 °F 29.9 in Calm     94% 0 in 0 W/m2
17:40 34 °F 32.4 °F 29.9 in Calm     94% 0 in 0 W/m2
17:45 34 °F 32.4 °F 29.9 in Calm     94% 0 in 0 W/m2
17:50 34 °F 32.4 °F 29.9 in SE 0.9 mph 3 mph 94% 0 in 0 W/m2
17:55 34 °F 32.4 °F 29.9 in Calm   1 mph 94% 0 in 0 W/m2
18:00 34 °F 32.4 °F 29.9 in Calm     94% 0 in 0 W/m2
18:05 34 °F 32.4 °F 29.9 in Calm     94% 0 in 0 W/m2
18:10 34 °F 32.4 °F 29.9 in Calm   1 mph 94% 0 in 0 W/m2
18:15 34.2 °F 32.5 °F 29.9 in SSE 0.9 mph 2 mph 94% 0 in 0 W/m2
18:20 34.2 °F 32.9 °F 29.9 in Calm   2 mph 95% 0 in 0 W/m2
18:25 34.2 °F 32.5 °F 29.9 in Calm     94% 0 in 0 W/m2
18:30 34.2 °F 32.5 °F 29.9 in ESE 2 mph 2 mph 94% 0 in 0 W/m2
18:35 34.2 °F 32.9 °F 29.9 in ESE 0.9 mph 1 mph 95% 0 in 0 W/m2
18:40 34.2 °F 32.9 °F 29.9 in Calm   1 mph 95% 0 in 0 W/m2
18:45 34.2 °F 32.9 °F 29.9 in ESE 2 mph 2 mph 95% 0 in 0 W/m2
18:50 34.2 °F 32.9 °F 29.9 in ESE 0.9 mph 2 mph 95% 0 in 0 W/m2
18:55 34.2 °F 32.9 °F 29.9 in Calm   2 mph 95% 0 in 0 W/m2
19:00 34.2 °F 32.9 °F 29.9 in ESE 0.9 mph 4 mph 95% 0 in 0 W/m2
19:05 34.3 °F 33.1 °F 29.9 in Calm   1 mph 95% 0 in 0 W/m2
19:10 34.3 °F 33.1 °F 29.9 in ESE 0.9 mph 1 mph 95% 0 in 0 W/m2
19:15 34.3 °F 33.1 °F 29.9 in Calm   3 mph 95% 0 in 0 W/m2
19:20 34.3 °F 33.1 °F 29.9 in East 2 mph 2 mph 95% 0 in 0 W/m2
19:25 34.3 °F 33.1 °F 29.9 in East 0.9 mph 3 mph 95% 0 in 0 W/m2
19:30 34.3 °F 33.1 °F 29.9 in ESE 0.9 mph 3 mph 95% 0 in 0 W/m2
19:35 34.3 °F 33.1 °F 29.9 in ESE 0.9 mph 3 mph 95% 0 in 0 W/m2
19:40 34.3 °F 33.1 °F 29.9 in Calm   1 mph 95% 0 in 0 W/m2
19:45 34.3 °F 33.1 °F 29.8 in Calm   3 mph 95% 0 in 0 W/m2
19:50 34.3 °F 33.1 °F 29.8 in Calm     95% 0 in 0 W/m2
19:55 34.5 °F 33.3 °F 29.8 in ESE 0.9 mph 1 mph 95% 0 in 0 W/m2
20:05 34.5 °F 33.3 °F 29.8 in Calm   1 mph 95% 0 in 0 W/m2
20:10 34.5 °F 33.3 °F 29.8 in Calm     95% 0 in 0 W/m2
20:15 34.5 °F 33.3 °F 29.8 in Calm     95% 0 in 0 W/m2
20:20 34.5 °F 33.3 °F 29.8 in ESE 2 mph 2 mph 95% 0 in 0 W/m2
20:25 34.5 °F 33.3 °F 29.8 in Calm   2 mph 95% 0 in 0 W/m2
20:30 34.5 °F 33.3 °F 29.8 in Calm   1 mph 95% 0 in 0 W/m2
20:35 34.5 °F 33.3 °F 29.8 in Calm     95% 0 in 0 W/m2
20:40 34.5 °F 33.3 °F 29.8 in Calm     95% 0 in 0 W/m2
20:45 34.5 °F 33.3 °F 29.8 in ENE 0.9 mph 2 mph 95% 0 in 0 W/m2
20:50 34.5 °F 33.3 °F 29.8 in ENE 0.9 mph 1 mph 95% 0 in 0 W/m2
20:55 34.5 °F 33.3 °F 29.8 in Calm   2 mph 95% 0 in 0 W/m2
21:00 34.5 °F 33.3 °F 29.8 in Calm     95% 0 in 0 W/m2
21:05 34.5 °F 33.3 °F 29.8 in Calm     95% 0 in 0 W/m2
21:10 34.5 °F 33.3 °F 29.8 in Calm     95% 0 in 0 W/m2
21:15 34.5 °F 32.9 °F 29.8 in Calm     94% 0 in 0 W/m2
21:20 34.5 °F 32.9 °F 29.8 in Calm     94% 0 in 0 W/m2
21:25 34.5 °F 32.9 °F 29.8 in Calm     94% 0 in 0 W/m2
21:30 34.5 °F 33.3 °F 29.8 in Calm     95% 0 in 0 W/m2
21:35 34.5 °F 33.3 °F 29.8 in Calm     95% 0 in 0 W/m2
21:40 34.5 °F 33.3 °F 29.8 in Calm     95% 0 in 0 W/m2
21:45 34.5 °F 33.3 °F 29.8 in Calm     95% 0 in 0 W/m2
21:50 34.5 °F 33.3 °F 29.8 in Calm     95% 0 in 0 W/m2
21:55 34.5 °F 33.3 °F 29.8 in Calm     95% 0 in 0 W/m2
22:00 34.5 °F 33.3 °F 29.8 in Calm     95% 0 in 0 W/m2
22:05 34.5 °F 33.3 °F 29.8 in Calm     95% 0 in 0 W/m2
22:10 34.5 °F 33.3 °F 29.8 in Calm     95% 0 in 0 W/m2
22:15 34.5 °F 33.3 °F 29.8 in Calm     95% 0 in 0 W/m2
22:20 34.5 °F 33.3 °F 29.8 in Calm   1 mph 95% 0 in 0 W/m2
22:25 34.5 °F 33.3 °F 29.8 in East 2 mph 2 mph 95% 0 in 0 W/m2
22:30 34.7 °F 33.4 °F 29.8 in ESE 0.9 mph 2 mph 95% 0 in 0 W/m2
22:35 34.7 °F 33.4 °F 29.8 in SE 2 mph 2 mph 95% 0 in 0 W/m2
22:40 34.7 °F 33.4 °F 29.8 in Calm   1 mph 95% 0 in 0 W/m2
22:45 34.7 °F 33.4 °F 29.8 in Calm     95% 0 in 0 W/m2
22:50 34.7 °F 33.4 °F 29.8 in Calm   1 mph 95% 0 in 0 W/m2
22:55 34.7 °F 33.4 °F 29.8 in Calm   1 mph 95% 0 in 0 W/m2
23:01 34.7 °F 33.4 °F 29.8 in Calm     95% 0 in 0 W/m2
23:06 34.7 °F 33.4 °F 29.8 in ESE 0.9 mph 2 mph 95% 0 in 0 W/m2
23:11 34.7 °F 33.4 °F 29.8 in Calm   2 mph 95% 0 in 0 W/m2
23:16 34.7 °F 33.4 °F 29.8 in Calm   1 mph 95% 0 in 0 W/m2
23:21 34.7 °F 33.4 °F 29.8 in Calm   2 mph 95% 0 in 0 W/m2
23:26 34.9 °F 33.6 °F 29.8 in Calm   1 mph 95% 0 in 0 W/m2
23:31 34.9 °F 33.6 °F 29.8 in Calm     95% 0 in 0 W/m2
23:36 34.9 °F 33.6 °F 29.8 in Calm   2 mph 95% 0 in 0 W/m2
23:41 34.9 °F 33.6 °F 29.8 in Calm   2 mph 95% 0 in 0 W/m2
23:46 34.9 °F 33.6 °F 29.8 in Calm     95% 0 in 0 W/m2
23:51 34.9 °F 33.6 °F 29.8 in Calm   1 mph 95% 0 in 0 W/m2
23:56 34.9 °F 33.6 °F 29.8 in East 0.9 mph 1 mph 95% 0 in 0 W/m2
Juneau County Weather
Compliments of Weather Underground - 2 mb